createdAt,value
2023-04-19T00:01:55.993Z,10.87
2023-04-19T00:04:22.591Z,6.87
2023-04-19T00:06:49.165Z,8.13
2023-04-19T00:09:15.445Z,5.57
2023-04-19T00:11:41.842Z,6.53
2023-04-19T00:14:08.135Z,9.20
2023-04-19T00:16:34.510Z,6.83
2023-04-19T00:19:01.699Z,10.33
2023-04-19T00:21:28.111Z,8.57
2023-04-19T00:23:54.368Z,9.40
2023-04-19T00:26:20.928Z,7.07
2023-04-19T00:28:47.180Z,11.57
2023-04-19T00:31:13.432Z,7.27
2023-04-19T00:33:39.723Z,6.20
2023-04-19T00:36:06.093Z,6.57
2023-04-19T00:38:32.394Z,6.87
2023-04-19T00:40:59.025Z,5.60
2023-04-19T00:43:25.284Z,7.37
2023-04-19T00:45:51.659Z,5.27
2023-04-19T00:48:18.256Z,5.80
2023-04-19T00:50:44.802Z,4.93
2023-04-19T00:53:11.088Z,5.23
2023-04-19T00:55:38.722Z,6.70
2023-04-19T00:58:08.573Z,8.17
2023-04-19T01:00:35.628Z,5.23
2023-04-19T01:03:02.227Z,5.90
2023-04-19T01:05:28.688Z,5.67
2023-04-19T01:07:54.990Z,7.87
2023-04-19T01:10:21.335Z,7.03
2023-04-19T01:12:47.617Z,7.50
2023-04-19T01:15:14.009Z,6.23
2023-04-19T01:17:41.135Z,6.40
2023-04-19T01:20:08.075Z,5.63
2023-04-19T01:22:37.564Z,6.67
2023-04-19T01:25:04.809Z,6.70
2023-04-19T01:27:31.081Z,5.87
2023-04-19T01:29:57.471Z,6.00
2023-04-19T01:32:25.418Z,5.97
2023-04-19T01:34:52.364Z,8.13
2023-04-19T01:37:18.937Z,4.70
2023-04-19T01:39:45.157Z,4.57
2023-04-19T01:42:11.602Z,8.20
2023-04-19T01:44:37.954Z,4.80
2023-04-19T01:47:04.813Z,7.00
2023-04-19T01:49:31.159Z,9.43
2023-04-19T01:51:57.500Z,8.03
2023-04-19T01:54:23.802Z,4.67
2023-04-19T01:56:50.118Z,5.30
2023-04-19T01:59:16.511Z,6.30
2023-04-19T02:01:42.800Z,4.93
2023-04-19T02:04:09.353Z,5.90
2023-04-19T02:06:35.782Z,4.87
2023-04-19T02:09:02.197Z,3.97
2023-04-19T02:11:28.609Z,5.83
2023-04-19T02:13:54.879Z,5.47
2023-04-19T02:16:21.311Z,7.73
2023-04-19T02:18:48.193Z,4.40
2023-04-19T02:21:14.460Z,4.73
2023-04-19T02:23:41.210Z,6.10
2023-04-19T02:26:07.485Z,5.83
2023-04-19T02:28:33.755Z,4.77
2023-04-19T02:31:03.770Z,5.17
2023-04-19T02:33:30.008Z,7.50
2023-04-19T02:35:56.320Z,6.53
2023-04-19T02:38:22.621Z,4.90
2023-04-19T02:40:49.062Z,6.30
2023-04-19T02:43:15.331Z,5.97
2023-04-19T02:45:41.653Z,5.57
2023-04-19T02:48:07.972Z,8.60
2023-04-19T02:50:38.705Z,6.73
2023-04-19T02:53:05.015Z,3.90
2023-04-19T02:55:31.347Z,5.67
2023-04-19T02:57:57.760Z,8.37
2023-04-19T03:00:24.035Z,4.03
2023-04-19T03:02:50.404Z,5.53
2023-04-19T03:05:16.704Z,6.60
2023-04-19T03:07:44.562Z,7.43
2023-04-19T03:10:11.090Z,4.60
2023-04-19T03:12:37.317Z,7.30
2023-04-19T03:15:03.785Z,6.80
2023-04-19T03:17:30.154Z,6.50
2023-04-19T03:19:56.737Z,4.93
2023-04-19T03:22:23.090Z,7.67
2023-04-19T03:24:49.351Z,5.03
2023-04-19T03:27:15.641Z,5.67
2023-04-19T03:29:42.057Z,5.20
2023-04-19T03:32:08.769Z,5.70
2023-04-19T03:34:35.033Z,5.83
2023-04-19T03:37:01.305Z,7.67
2023-04-19T03:39:28.461Z,5.57
2023-04-19T03:41:54.768Z,5.93
2023-04-19T03:44:21.042Z,8.10
2023-04-19T03:46:48.733Z,4.07
2023-04-19T03:49:15.183Z,6.60
2023-04-19T03:51:41.507Z,5.33
2023-04-19T03:54:07.882Z,5.70
2023-04-19T03:56:34.199Z,4.70
2023-04-19T03:59:00.598Z,4.40
2023-04-19T04:01:26.941Z,5.73
2023-04-19T04:03:53.454Z,4.83
2023-04-19T04:06:20.019Z,5.37
2023-04-19T04:08:46.798Z,6.60
2023-04-19T04:11:13.132Z,6.67
2023-04-19T04:13:39.389Z,5.83
2023-04-19T04:16:05.815Z,5.03
2023-04-19T04:18:32.124Z,5.17
2023-04-19T04:20:58.505Z,6.40
2023-04-19T04:23:25.432Z,5.97
2023-04-19T04:26:01.132Z,5.80
2023-04-19T04:28:28.071Z,5.37
2023-04-19T04:30:57.870Z,6.17
2023-04-19T04:33:25.518Z,8.37
2023-04-19T04:35:52.134Z,5.27
2023-04-19T04:38:24.652Z,10.10
2023-04-19T04:40:53.656Z,7.83
2023-04-19T04:43:21.769Z,6.93
2023-04-19T04:45:48.109Z,8.53
2023-04-19T04:48:14.713Z,7.07
2023-04-19T04:50:41.012Z,5.73
2023-04-19T04:53:07.308Z,5.10
2023-04-19T04:55:34.202Z,5.43
2023-04-19T04:58:00.534Z,6.67
2023-04-19T05:00:27.280Z,6.50
2023-04-19T05:02:53.666Z,5.57
2023-04-19T05:05:19.964Z,9.37
2023-04-19T05:07:46.804Z,6.03
2023-04-19T05:10:13.284Z,4.83
2023-04-19T05:12:39.563Z,5.10
2023-04-19T05:15:06.463Z,5.23
2023-04-19T05:17:32.841Z,5.83
2023-04-19T05:19:59.146Z,7.43
2023-04-19T05:22:25.719Z,7.80
2023-04-19T05:24:51.953Z,9.77
2023-04-19T05:27:18.282Z,5.53
2023-04-19T05:29:44.636Z,11.77
2023-04-19T05:32:11.574Z,6.60
2023-04-19T05:34:37.925Z,5.77
2023-04-19T05:37:05.456Z,6.80
2023-04-19T05:39:31.735Z,4.07
2023-04-19T05:41:58.039Z,6.50
2023-04-19T05:44:24.292Z,6.57
2023-04-19T05:46:50.668Z,3.13
2023-04-19T05:49:16.916Z,3.77
2023-04-19T05:51:43.163Z,5.10
2023-04-19T05:54:12.601Z,5.00
2023-04-19T05:56:39.032Z,4.60
2023-04-19T05:59:06.533Z,3.57
2023-04-19T06:01:32.859Z,6.13
2023-04-19T06:03:59.277Z,7.23
2023-04-19T06:06:25.678Z,6.57
2023-04-19T06:08:54.431Z,4.00
2023-04-19T06:11:28.964Z,6.47
2023-04-19T06:13:57.929Z,4.60
2023-04-19T06:16:24.221Z,4.30
2023-04-19T06:18:50.721Z,5.87
2023-04-19T06:21:16.972Z,6.07
2023-04-19T06:23:43.262Z,4.73
2023-04-19T06:26:09.525Z,5.33
2023-04-19T06:28:35.792Z,7.30
2023-04-19T06:31:02.778Z,4.00
2023-04-19T06:33:29.230Z,4.77
2023-04-19T06:35:55.662Z,5.40
2023-04-19T06:38:21.966Z,5.87
2023-04-19T06:40:48.198Z,5.93
2023-04-19T06:43:14.530Z,3.47
2023-04-19T06:45:40.875Z,7.03
2023-04-19T06:48:07.261Z,6.07
2023-04-19T06:50:33.545Z,6.07
2023-04-19T06:52:59.927Z,8.13
2023-04-19T06:55:26.431Z,5.23
2023-04-19T06:57:52.909Z,4.63
2023-04-19T07:00:19.307Z,4.73
2023-04-19T07:02:45.713Z,3.17
2023-04-19T07:05:13.455Z,4.53
2023-04-19T07:07:41.507Z,4.23
2023-04-19T07:10:09.074Z,4.10
2023-04-19T07:12:35.648Z,8.43
2023-04-19T07:15:01.996Z,5.07
2023-04-19T07:17:28.399Z,4.88
2023-04-19T07:19:54.679Z,4.30
2023-04-19T07:22:22.254Z,3.25
2023-04-19T07:24:48.600Z,3.80
2023-04-19T07:27:16.537Z,3.10
2023-04-19T07:29:42.878Z,4.85
2023-04-19T07:32:09.799Z,4.60
2023-04-19T07:34:37.831Z,6.13
2023-04-19T07:37:04.145Z,2.83
2023-04-19T07:39:31.032Z,3.38
2023-04-19T07:41:58.070Z,3.67
2023-04-19T07:44:24.367Z,3.58
2023-04-19T07:46:51.068Z,5.95
2023-04-19T07:49:17.359Z,2.95
2023-04-19T07:51:43.964Z,4.35
2023-04-19T07:54:10.452Z,4.23
2023-04-19T07:56:36.963Z,4.43
2023-04-19T07:59:08.141Z,3.73
2023-04-19T08:01:35.745Z,4.93
2023-04-19T08:04:02.466Z,4.93
2023-04-19T08:06:30.507Z,4.53
2023-04-19T08:08:56.846Z,5.07
2023-04-19T08:11:25.033Z,4.90
2023-04-19T08:14:04.029Z,4.70
2023-04-19T08:19:04.902Z,3.93
2023-04-19T08:21:40.595Z,5.87
2023-04-19T08:24:07.764Z,3.77
2023-04-19T08:26:34.024Z,4.97
2023-04-19T08:29:00.456Z,4.20
2023-04-19T08:31:26.743Z,5.10
2023-04-19T08:33:52.982Z,5.80
2023-04-19T08:36:22.462Z,4.20
2023-04-19T08:39:06.619Z,5.53
2023-04-19T08:41:34.916Z,7.03
2023-04-19T08:44:01.607Z,4.87
2023-04-19T08:46:28.393Z,4.73
2023-04-19T08:48:55.227Z,6.60
2023-04-19T08:51:21.991Z,5.10
2023-04-19T08:53:49.627Z,8.20
2023-04-19T08:56:24.348Z,5.50
2023-04-19T08:59:15.676Z,4.47
2023-04-19T09:01:45.115Z,5.27
2023-04-19T09:04:34.790Z,5.53
2023-04-19T09:06:57.969Z,6.17
2023-04-19T09:12:01.439Z,7.60
2023-04-19T09:14:29.044Z,5.63
2023-04-19T09:17:11.549Z,5.20
2023-04-19T09:19:45.584Z,5.90
2023-04-19T09:22:14.904Z,5.23
2023-04-19T09:27:13.282Z,7.83
2023-04-19T09:29:39.630Z,7.23
2023-04-19T09:32:06.293Z,4.47
2023-04-19T09:34:32.664Z,6.63
2023-04-19T09:37:15.181Z,5.33
2023-04-19T09:39:54.789Z,6.97
2023-04-19T09:42:42.126Z,7.73
2023-04-19T09:47:37.752Z,6.63
2023-04-19T09:50:22.556Z,7.07
2023-04-19T09:52:50.088Z,7.67
2023-04-19T09:55:26.847Z,5.43
2023-04-19T09:57:54.028Z,9.17
2023-04-19T10:00:21.696Z,6.10
2023-04-19T10:02:55.687Z,4.90
2023-04-19T10:05:23.050Z,5.20
2023-04-19T10:07:50.305Z,5.67
2023-04-19T10:10:21.001Z,5.40
2023-04-19T10:13:11.468Z,6.23
2023-04-19T10:18:07.530Z,4.43
2023-04-19T10:20:43.954Z,8.07
2023-04-19T10:23:10.601Z,8.10
2023-04-19T10:25:37.338Z,5.27
2023-04-19T10:28:03.855Z,6.57
2023-04-19T10:30:31.011Z,6.50
2023-04-19T10:33:02.903Z,4.57
2023-04-19T10:35:38.208Z,6.90
2023-04-19T10:38:12.310Z,7.17
2023-04-19T10:40:58.205Z,5.53
2023-04-19T10:43:25.198Z,4.33
2023-04-19T10:45:51.593Z,7.17
2023-04-19T10:48:33.591Z,4.53
2023-04-19T10:51:03.985Z,8.77
2023-04-19T10:53:49.394Z,6.43
2023-04-19T10:56:16.988Z,5.33
2023-04-19T10:59:07.941Z,5.57
2023-04-19T11:01:39.539Z,5.30
2023-04-19T11:04:07.058Z,6.40
2023-04-19T11:06:34.017Z,7.27
2023-04-19T11:09:01.057Z,7.73
2023-04-19T11:11:27.461Z,8.97
2023-04-19T11:13:55.576Z,4.30
2023-04-19T11:16:28.386Z,4.23
2023-04-19T11:19:04.485Z,6.97
2023-04-19T11:21:30.749Z,6.90
2023-04-19T11:24:07.838Z,7.73
2023-04-19T11:26:34.221Z,6.87
2023-04-19T11:29:01.437Z,6.07
2023-04-19T11:31:27.956Z,8.10
2023-04-19T11:33:54.545Z,9.67
2023-04-19T11:36:20.823Z,7.47
2023-04-19T11:38:47.722Z,9.70
2023-04-19T11:41:14.140Z,5.60
2023-04-19T11:43:41.354Z,6.27
2023-04-19T11:46:12.055Z,9.97
2023-04-19T11:48:38.958Z,7.07
2023-04-19T11:51:05.650Z,6.17
2023-04-19T11:53:32.427Z,8.67
2023-04-19T11:56:06.219Z,8.10
2023-04-19T11:58:36.061Z,8.43
2023-04-19T12:01:06.218Z,6.50
2023-04-19T12:03:33.695Z,5.30
2023-04-19T12:06:03.378Z,8.07
2023-04-19T12:08:31.964Z,7.87
2023-04-19T12:10:59.005Z,5.67
2023-04-19T12:13:25.977Z,8.13
2023-04-19T12:15:52.810Z,8.27
2023-04-19T12:18:19.147Z,4.50
2023-04-19T12:20:49.460Z,7.60
2023-04-19T12:23:16.418Z,6.07
2023-04-19T12:25:43.856Z,8.23
2023-04-19T12:28:10.211Z,9.10
2023-04-19T12:30:37.063Z,6.87
2023-04-19T12:33:03.718Z,5.80
2023-04-19T12:35:30.195Z,6.53
2023-04-19T12:37:57.530Z,9.17
2023-04-19T12:40:24.195Z,11.20
2023-04-19T12:42:50.701Z,5.03
2023-04-19T12:45:18.041Z,7.50
2023-04-19T12:47:44.940Z,5.87
2023-04-19T12:50:12.472Z,5.87
2023-04-19T12:52:39.024Z,7.63
2023-04-19T12:55:05.918Z,6.47
2023-04-19T12:57:32.288Z,7.77
2023-04-19T12:59:58.901Z,8.07
2023-04-19T13:02:25.394Z,9.33
2023-04-19T13:04:51.862Z,9.40
2023-04-19T13:07:18.256Z,7.07
2023-04-19T13:09:44.595Z,10.47
2023-04-19T13:12:10.842Z,7.37
2023-04-19T13:14:37.086Z,8.87
2023-04-19T13:17:03.406Z,7.93
2023-04-19T13:19:29.653Z,9.30
2023-04-19T13:21:55.927Z,7.17
2023-04-19T13:24:22.242Z,9.40
2023-04-19T13:26:48.509Z,9.27
2023-04-19T13:29:14.947Z,7.57
2023-04-19T13:31:43.533Z,7.20
2023-04-19T13:34:10.162Z,5.27
2023-04-19T13:36:36.458Z,5.23
2023-04-19T13:39:02.874Z,7.20
2023-04-19T13:41:29.452Z,9.33
2023-04-19T13:43:55.885Z,11.17
2023-04-19T13:46:22.154Z,6.67
2023-04-19T13:48:48.450Z,7.50
2023-04-19T13:51:14.750Z,9.83
2023-04-19T13:53:41.000Z,6.00
2023-04-19T13:56:09.558Z,9.00
2023-04-19T13:58:36.180Z,5.50
2023-04-19T14:01:03.245Z,5.90
2023-04-19T14:03:32.080Z,7.43
2023-04-19T14:05:58.694Z,9.30
2023-04-19T14:08:25.009Z,7.20
2023-04-19T14:10:51.330Z,6.07
2023-04-19T14:13:17.695Z,5.80
2023-04-19T14:15:43.934Z,7.13
2023-04-19T14:18:10.267Z,8.43
2023-04-19T14:20:36.541Z,5.70
2023-04-19T14:23:02.815Z,7.43
2023-04-19T14:25:29.094Z,6.20
2023-04-19T14:27:55.573Z,7.00
2023-04-19T14:30:21.887Z,7.40
2023-04-19T14:32:48.267Z,8.37
2023-04-19T14:35:14.644Z,8.80
2023-04-19T14:37:40.911Z,7.50
2023-04-19T14:40:07.529Z,8.50
2023-04-19T14:42:33.921Z,5.97
2023-04-19T14:45:00.270Z,6.10
2023-04-19T14:47:26.710Z,9.40
2023-04-19T14:49:53.108Z,9.60
2023-04-19T14:52:19.398Z,7.57
2023-04-19T14:54:46.220Z,8.73
2023-04-19T14:57:13.199Z,11.00
2023-04-19T14:59:39.781Z,8.90
2023-04-19T15:02:06.215Z,10.17
2023-04-19T15:04:37.401Z,10.90
2023-04-19T15:07:06.239Z,10.03
2023-04-19T15:09:32.523Z,9.80
2023-04-19T15:11:58.925Z,9.93
2023-04-19T15:14:25.247Z,9.57
2023-04-19T15:16:51.524Z,13.60
2023-04-19T15:19:17.975Z,10.67
2023-04-19T15:21:44.478Z,12.10
2023-04-19T15:24:11.140Z,9.70
2023-04-19T15:26:39.078Z,10.47
2023-04-19T15:29:05.661Z,10.23
2023-04-19T15:31:32.259Z,10.33
2023-04-19T15:34:01.431Z,9.37
2023-04-19T15:36:27.965Z,9.90
2023-04-19T15:38:54.211Z,11.43
2023-04-19T15:41:20.603Z,8.67
2023-04-19T15:43:47.912Z,11.27
2023-04-19T15:46:14.569Z,9.40
2023-04-19T15:48:41.913Z,10.60
2023-04-19T15:51:08.674Z,10.27
2023-04-19T15:53:35.958Z,11.30
2023-04-19T15:56:02.505Z,16.30
2023-04-19T15:58:29.089Z,14.27
2023-04-19T16:00:55.719Z,10.03
2023-04-19T16:03:22.340Z,13.03
2023-04-19T16:05:51.562Z,11.20
2023-04-19T16:08:19.700Z,11.73
2023-04-19T16:10:46.583Z,14.50
2023-04-19T16:13:14.048Z,9.77
2023-04-19T16:15:44.184Z,11.30
2023-04-19T16:18:11.054Z,11.77
2023-04-19T16:20:37.957Z,12.53
2023-04-19T16:23:04.261Z,14.70
2023-04-19T16:25:31.107Z,12.70
2023-04-19T16:27:57.510Z,14.00
2023-04-19T16:30:23.872Z,9.43
2023-04-19T16:32:50.320Z,12.13
2023-04-19T16:35:18.282Z,12.23
2023-04-19T16:37:44.596Z,12.40
2023-04-19T16:40:11.170Z,12.20
2023-04-19T16:42:38.262Z,10.80
2023-04-19T16:45:04.881Z,13.63
2023-04-19T16:47:32.240Z,11.83
2023-04-19T16:49:58.979Z,12.33
2023-04-19T16:52:25.754Z,10.03
2023-04-19T16:54:52.018Z,13.47
2023-04-19T16:57:18.563Z,15.57
2023-04-19T16:59:45.203Z,14.97
2023-04-19T17:02:11.596Z,10.97
2023-04-19T17:04:38.294Z,12.80
2023-04-19T17:07:04.902Z,13.47
2023-04-19T17:09:31.162Z,15.27
2023-04-19T17:11:57.809Z,14.73
2023-04-19T17:14:24.259Z,10.70
2023-04-19T17:16:50.706Z,12.07
2023-04-19T17:19:17.199Z,15.93
2023-04-19T17:21:44.120Z,12.93
2023-04-19T17:24:10.415Z,13.67
2023-04-19T17:26:36.662Z,12.07
2023-04-19T17:29:03.127Z,13.83
2023-04-19T17:31:29.454Z,9.13
2023-04-19T17:33:55.853Z,10.53
2023-04-19T17:36:22.280Z,11.43
2023-04-19T17:38:48.587Z,8.87
2023-04-19T17:41:17.782Z,11.80
2023-04-19T17:43:44.579Z,8.83
2023-04-19T17:46:11.206Z,10.87
2023-04-19T17:48:37.585Z,12.40
2023-04-19T17:51:03.909Z,9.57
2023-04-19T17:53:30.211Z,9.70
2023-04-19T17:55:56.528Z,11.80
2023-04-19T17:58:22.893Z,7.83
2023-04-19T18:00:49.352Z,9.05
2023-04-19T18:03:16.050Z,10.10
2023-04-19T18:05:42.659Z,7.47
2023-04-19T18:08:09.597Z,11.53
2023-04-19T18:10:36.132Z,10.70
2023-04-19T18:13:02.581Z,13.73
2023-04-19T18:15:29.045Z,12.10
2023-04-19T18:17:55.391Z,9.40
2023-04-19T18:20:21.845Z,9.33
2023-04-19T18:22:49.094Z,8.30
2023-04-19T18:25:15.393Z,9.37
2023-04-19T18:27:41.711Z,7.63
2023-04-19T18:30:08.272Z,9.97
2023-04-19T18:32:35.598Z,8.33
2023-04-19T18:35:05.160Z,11.00
2023-04-19T18:37:31.538Z,9.03
2023-04-19T18:39:58.269Z,10.73
2023-04-19T18:42:24.637Z,8.07
2023-04-19T18:44:54.368Z,9.67
2023-04-19T18:47:21.223Z,8.67
2023-04-19T18:50:02.711Z,8.70
2023-04-19T18:52:31.197Z,9.30
2023-04-19T18:54:58.371Z,10.87
2023-04-19T18:57:27.607Z,10.47
2023-04-19T18:59:55.730Z,9.87
2023-04-19T19:02:22.164Z,9.87
2023-04-19T19:04:57.117Z,13.50
2023-04-19T19:07:35.671Z,13.17
2023-04-19T19:10:09.849Z,11.67
2023-04-19T19:12:44.433Z,15.07
2023-04-19T19:15:10.787Z,12.90
2023-04-19T19:17:38.028Z,10.03
2023-04-19T19:20:06.538Z,14.40
2023-04-19T19:22:33.041Z,12.23
2023-04-19T19:24:59.270Z,11.93
2023-04-19T19:27:25.541Z,15.83
2023-04-19T19:29:51.962Z,15.83
2023-04-19T19:32:19.288Z,12.50
2023-04-19T19:34:54.694Z,17.57
2023-04-19T19:37:22.336Z,12.97
2023-04-19T19:39:48.627Z,14.27
2023-04-19T19:42:18.436Z,16.13
2023-04-19T19:44:44.824Z,14.33
2023-04-19T19:47:11.870Z,15.13
2023-04-19T19:52:07.798Z,16.43
2023-04-19T19:54:34.325Z,12.70
2023-04-19T19:57:48.409Z,15.03
2023-04-19T19:59:54.530Z,16.47
2023-04-19T20:02:22.133Z,14.80
2023-04-19T20:04:48.957Z,17.23
2023-04-19T20:09:45.121Z,14.43
2023-04-19T20:12:13.470Z,15.03
2023-04-19T20:14:40.356Z,16.20
2023-04-19T20:17:06.705Z,16.07
2023-04-19T20:22:29.661Z,13.90
2023-04-19T20:24:56.483Z,13.73
2023-04-19T20:27:22.753Z,15.40
2023-04-19T20:29:49.057Z,18.83
2023-04-19T20:32:15.459Z,16.83
2023-04-19T20:34:41.936Z,16.87
2023-04-19T20:37:08.202Z,15.60
2023-04-19T20:39:34.463Z,16.33
2023-04-19T20:42:01.415Z,17.77
2023-04-19T20:44:27.719Z,20.73
2023-04-19T20:46:53.984Z,19.27
2023-04-19T20:49:20.420Z,18.60
2023-04-19T20:51:48.380Z,17.13
2023-04-19T20:54:14.740Z,19.47
2023-04-19T20:56:41.186Z,17.53
2023-04-19T20:59:07.474Z,18.87
2023-04-19T21:01:34.280Z,16.13
2023-04-19T21:04:00.956Z,15.73
2023-04-19T21:06:27.861Z,18.70
2023-04-19T21:08:54.123Z,14.93
2023-04-19T21:11:20.990Z,16.33
2023-04-19T21:13:47.272Z,20.33
2023-04-19T21:16:13.671Z,16.63
2023-04-19T21:18:39.937Z,13.57
2023-04-19T21:21:06.215Z,16.13
2023-04-19T21:23:32.511Z,17.87
2023-04-19T21:25:58.909Z,19.77
2023-04-19T21:28:25.167Z,19.03
2023-04-19T21:30:53.299Z,14.83
2023-04-19T21:33:19.567Z,15.83
2023-04-19T21:35:45.823Z,15.20
2023-04-19T21:38:12.291Z,15.93
2023-04-19T21:40:38.556Z,15.40
2023-04-19T21:43:04.863Z,17.30
2023-04-19T21:45:31.274Z,13.77
2023-04-19T21:47:57.603Z,14.03
2023-04-19T21:50:23.946Z,16.10
2023-04-19T21:52:50.203Z,14.33
2023-04-19T21:55:16.478Z,12.50
2023-04-19T21:57:43.058Z,16.60
2023-04-19T22:00:09.717Z,15.37
2023-04-19T22:02:36.270Z,16.03
2023-04-19T22:05:02.821Z,13.50
2023-04-19T22:07:31.895Z,13.40
2023-04-19T22:09:58.166Z,13.00
2023-04-19T22:12:24.649Z,12.57
2023-04-19T22:14:51.373Z,12.80
2023-04-19T22:17:18.760Z,13.10
2023-04-19T22:19:45.564Z,13.33
2023-04-19T22:22:11.975Z,13.57
2023-04-19T22:24:53.420Z,12.63
2023-04-19T22:27:23.075Z,12.60
2023-04-19T22:29:49.368Z,13.80
2023-04-19T22:32:15.756Z,14.00
2023-04-19T22:34:42.253Z,14.47
2023-04-19T22:37:08.679Z,14.17
2023-04-19T22:39:34.986Z,13.50
2023-04-19T22:42:01.485Z,13.60
2023-04-19T22:44:27.735Z,14.07
2023-04-19T22:46:54.588Z,13.70
2023-04-19T22:49:22.487Z,13.47
2023-04-19T22:51:48.763Z,13.83
2023-04-19T22:54:15.301Z,13.97
2023-04-19T22:56:41.583Z,14.40
2023-04-19T22:59:10.810Z,13.97
2023-04-19T23:01:37.131Z,13.70
2023-04-19T23:04:03.464Z,12.53
2023-04-19T23:06:30.270Z,13.53
2023-04-19T23:08:56.591Z,12.37
2023-04-19T23:11:25.392Z,12.53
2023-04-19T23:13:55.326Z,11.47
2023-04-19T23:16:24.959Z,11.50
2023-04-19T23:18:51.671Z,11.70
2023-04-19T23:21:18.103Z,12.03
2023-04-19T23:23:44.503Z,12.50
2023-04-19T23:26:10.913Z,12.80
2023-04-19T23:28:37.265Z,11.50
2023-04-19T23:31:03.593Z,11.10
2023-04-19T23:33:29.863Z,11.87
2023-04-19T23:35:56.172Z,10.97
2023-04-19T23:38:22.534Z,12.93
2023-04-19T23:40:48.807Z,13.80
2023-04-19T23:43:15.208Z,11.43
2023-04-19T23:45:41.523Z,12.60
2023-04-19T23:48:07.881Z,13.47
2023-04-19T23:50:34.256Z,14.07
2023-04-19T23:53:00.754Z,13.27
2023-04-19T23:55:27.052Z,14.80
2023-04-19T23:57:53.589Z,11.23
